Time;durP1;ratioP1;P1;durP2;ratioP2;P2;SDS_P1;SDS_P2;PMS_P1;PMS_P2;Temp;Humidity;BMP_temperature;BMP_pressure;BME280_temperature;BME280_humidity;BME280_pressure;Samples;Min_cycle;Max_cycle;Signal;HPM_P1;HPM_P2
2022/05/23 00:01:23;;;;;;;4.93;2.35;;;14.10;93.90;;;;;;5011482;28;20057;-59
2022/05/23 00:03:50;;;;;;;4.13;1.67;;;14.10;94.10;;;;;;5013668;28;20120;-59
2022/05/23 00:06:19;;;;;;;7.80;1.40;;;14.10;94.20;;;;;;5011900;28;20039;-59
2022/05/23 00:08:46;;;;;;;3.92;1.80;;;14.20;94.20;;;;;;5013584;28;20045;-59
2022/05/23 00:11:12;;;;;;;4.28;1.50;;;14.20;95.40;;;;;;5005336;28;20033;-58
2022/05/23 00:13:37;;;;;;;5.15;1.85;;;14.20;96.10;;;;;;5010926;28;20038;-58
2022/05/23 00:16:03;;;;;;;6.72;2.95;;;14.10;97.40;;;;;;5013720;28;20033;-59
2022/05/23 00:18:30;;;;;;;5.30;2.05;;;14.10;97.30;;;;;;5012105;28;20381;-60
2022/05/23 00:20:55;;;;;;;9.20;2.17;;;14.10;97.40;;;;;;5013582;28;20084;-59
2022/05/23 00:23:22;;;;;;;5.30;2.47;;;14.00;98.10;;;;;;5011456;28;20026;-59
2022/05/23 00:25:49;;;;;;;6.05;3.00;;;13.90;98.40;;;;;;5012524;28;20049;-59
2022/05/23 00:28:14;;;;;;;6.53;2.60;;;13.90;98.90;;;;;;5011157;28;20040;-58
2022/05/23 00:30:41;;;;;;;3.92;2.50;;;13.90;99.70;;;;;;5013374;28;20042;-59
2022/05/23 00:35:53;;;;;;;7.05;2.97;;;13.90;99.70;;;;;;5012757;28;20037;-59
2022/05/23 00:38:19;;;;;;;6.85;3.15;;;13.90;99.60;;;;;;5010877;28;20033;-58
2022/05/23 00:43:13;;;;;;;6.75;3.25;;;13.80;99.20;;;;;;5013398;28;20037;-58
2022/05/23 00:43:42;;;;;;;5.22;3.35;;;13.80;99.80;;;;;;5006967;28;20367;-59
2022/05/23 00:46:11;;;;;;;11.10;4.32;;;13.90;99.90;;;;;;5011599;28;20041;-59
2022/05/23 00:48:37;;;;;;;6.43;3.20;;;13.90;99.60;;;;;;5011519;28;20497;-58
2022/05/23 00:51:15;;;;;;;8.55;3.28;;;13.90;99.70;;;;;;5010578;28;20033;-58
2022/05/23 00:53:48;;;;;;;8.75;3.80;;;13.90;99.90;;;;;;5012948;28;20030;-59
2022/05/23 00:56:16;;;;;;;6.85;3.65;;;13.90;99.90;;;;;;5003314;28;20030;-59
2022/05/23 00:59:00;;;;;;;10.93;3.78;;;13.90;99.90;;;;;;5007052;28;20040;-59
2022/05/23 01:01:30;;;;;;;9.50;3.40;;;13.90;99.90;;;;;;5011217;28;20073;-59
2022/05/23 01:03:55;;;;;;;7.75;3.17;;;13.90;99.90;;;;;;5012718;28;20025;-59
2022/05/23 01:06:21;;;;;;;9.95;3.47;;;14.00;99.90;;;;;;5008859;28;20382;-59
2022/05/23 01:08:50;;;;;;;11.75;5.25;;;14.00;99.90;;;;;;5012857;28;20059;-59
2022/05/23 01:11:15;;;;;;;9.55;4.22;;;13.90;99.80;;;;;;5010530;28;20036;-59
2022/05/23 01:13:41;;;;;;;10.32;4.50;;;13.80;99.40;;;;;;5012383;28;20029;-60
2022/05/23 01:16:07;;;;;;;11.68;3.92;;;13.80;99.90;;;;;;5007507;28;20040;-58
2022/05/23 01:18:33;;;;;;;7.60;4.30;;;13.70;99.90;;;;;;5010547;28;20022;-59
2022/05/23 01:21:02;;;;;;;11.75;4.30;;;13.70;99.90;;;;;;5012599;28;20053;-59
2022/05/23 01:23:47;;;;;;;12.00;4.88;;;13.60;99.90;;;;;;5010741;28;20026;-59
2022/05/23 01:26:13;;;;;;;6.32;3.92;;;13.50;99.90;;;;;;5010245;28;20030;-60
2022/05/23 01:28:41;;;;;;;10.35;4.63;;;13.50;99.90;;;;;;5010131;28;20080;-61
2022/05/23 01:31:09;;;;;;;8.30;4.10;;;13.50;99.90;;;;;;5006579;28;20054;-60
2022/05/23 01:33:35;;;;;;;6.85;3.20;;;13.40;99.90;;;;;;5002268;28;20026;-60
2022/05/23 01:36:01;;;;;;;8.68;4.20;;;13.30;99.90;;;;;;5012373;28;20364;-60
2022/05/23 01:38:27;;;;;;;11.02;4.53;;;13.20;99.90;;;;;;5010352;28;20485;-59
2022/05/23 01:40:57;;;;;;;14.10;5.03;;;13.20;99.90;;;;;;5010597;28;20032;-59
2022/05/23 01:43:24;;;;;;;8.68;3.80;;;13.20;99.90;;;;;;5009881;28;20022;-59
2022/05/23 01:45:50;;;;;;;9.57;3.47;;;13.20;99.90;;;;;;5011597;28;20045;-60
2022/05/23 01:48:16;;;;;;;7.57;3.70;;;13.20;99.90;;;;;;5010134;28;20030;-58
2022/05/23 01:50:42;;;;;;;10.57;3.97;;;13.20;99.90;;;;;;5010276;28;20022;-59
2022/05/23 01:53:08;;;;;;;9.55;4.15;;;13.20;99.90;;;;;;5011688;28;20048;-60
2022/05/23 01:55:36;;;;;;;8.43;3.30;;;13.30;99.90;;;;;;5009417;28;20481;-59
2022/05/23 01:58:03;;;;;;;11.50;3.75;;;13.20;99.90;;;;;;5011331;28;20128;-59
2022/05/23 02:03:13;;;;;;;7.60;3.92;;;13.20;99.90;;;;;;5008007;28;20059;-60
2022/05/23 02:05:38;;;;;;;5.65;3.88;;;13.20;99.90;;;;;;5008982;28;20022;-59
2022/05/23 02:08:04;;;;;;;6.00;3.40;;;13.10;99.90;;;;;;5011485;28;20084;-59
2022/05/23 02:10:30;;;;;;;7.53;4.53;;;13.10;99.90;;;;;;5005750;28;20142;-59
2022/05/23 02:12:59;;;;;;;7.63;3.90;;;13.10;99.90;;;;;;5010735;28;20026;-60
2022/05/23 02:15:25;;;;;;;11.07;4.68;;;13.10;99.90;;;;;;5008528;28;20233;-58
2022/05/23 02:17:51;;;;;;;7.63;3.78;;;13.10;99.90;;;;;;5010947;28;20026;-59
2022/05/23 02:20:17;;;;;;;11.52;4.10;;;13.00;99.90;;;;;;5008450;28;20041;-59
2022/05/23 02:22:43;;;;;;;9.23;4.18;;;13.10;99.90;;;;;;5011162;28;20026;-60
2022/05/23 02:25:09;;;;;;;5.93;3.67;;;13.10;99.90;;;;;;5011141;28;20045;-59
2022/05/23 02:27:35;;;;;;;8.13;3.67;;;13.10;99.90;;;;;;5001760;28;20418;-58
2022/05/23 02:30:01;;;;;;;4.40;3.13;;;13.20;99.90;;;;;;5010928;28;20033;-58
2022/05/23 02:32:26;;;;;;;5.88;3.35;;;13.20;99.90;;;;;;5008560;28;20041;-59
2022/05/23 02:34:52;;;;;;;9.07;4.00;;;13.30;99.90;;;;;;5011221;28;20036;-59
2022/05/23 02:37:18;;;;;;;9.52;4.90;;;13.30;99.90;;;;;;5008994;28;20036;-59
2022/05/23 02:39:44;;;;;;;9.13;4.50;;;13.30;99.90;;;;;;5006117;28;20110;-59
2022/05/23 02:42:10;;;;;;;10.93;4.65;;;13.20;99.90;;;;;;5010382;28;20127;-59
2022/05/23 02:44:36;;;;;;;7.30;4.60;;;13.10;99.90;;;;;;5007281;28;20030;-59
2022/05/23 02:47:02;;;;;;;11.00;5.40;;;13.10;99.90;;;;;;5010766;28;20096;-60
2022/05/23 02:49:28;;;;;;;9.30;5.50;;;13.10;99.90;;;;;;5009068;28;20068;-60
2022/05/23 02:51:54;;;;;;;10.63;5.05;;;13.10;99.90;;;;;;5005083;28;20066;-59
2022/05/23 02:54:20;;;;;;;13.45;5.93;;;13.20;99.90;;;;;;5006383;28;20062;-61
2022/05/23 02:56:46;;;;;;;14.55;5.03;;;13.10;99.90;;;;;;5010207;28;20503;-60
2022/05/23 02:59:12;;;;;;;10.70;5.03;;;13.10;99.90;;;;;;5002436;28;20464;-60
2022/05/23 03:03:01;;;;;;;9.25;4.65;;;13.20;99.90;;;;;;5008302;28;20143;-59
2022/05/23 03:04:24;;;;;;;10.35;4.68;;;13.20;99.90;;;;;;5004132;28;20072;-59
2022/05/23 03:06:51;;;;;;;15.23;4.65;;;13.20;99.90;;;;;;5007014;28;20065;-59
2022/05/23 03:09:17;;;;;;;10.85;4.78;;;13.20;99.80;;;;;;5009082;28;20108;-59
2022/05/23 03:11:43;;;;;;;9.05;4.88;;;13.20;99.30;;;;;;5001696;28;20022;-59
2022/05/23 03:14:09;;;;;;;10.15;4.68;;;13.20;98.50;;;;;;5008235;28;20092;-60
2022/05/23 03:16:34;;;;;;;12.80;5.43;;;13.30;98.90;;;;;;5007381;28;20152;-59
2022/05/23 03:19:00;;;;;;;11.18;5.35;;;13.20;99.90;;;;;;5010635;28;20058;-59
2022/05/23 03:27:00;;;;;;;9.45;4.90;;;13.40;99.90;;;;;;5000978;28;20410;-58
2022/05/23 03:29:30;;;;;;;9.80;4.63;;;13.40;99.90;;;;;;5007898;28;20057;-59
2022/05/23 03:31:56;;;;;;;10.68;4.80;;;13.40;99.90;;;;;;5010042;28;20054;-59
2022/05/23 03:37:43;;;;;;;9.80;4.68;;;13.20;99.90;;;;;;5006230;28;20454;-63
2022/05/23 03:40:10;;;;;;;10.68;5.10;;;13.20;99.90;;;;;;5010146;28;20556;-62
2022/05/23 03:42:36;;;;;;;15.88;6.05;;;13.10;99.90;;;;;;5006084;28;20038;-61
2022/05/23 03:45:03;;;;;;;15.52;6.40;;;13.10;99.90;;;;;;5002759;28;20508;-62
2022/05/23 03:47:29;;;;;;;15.77;6.57;;;13.00;99.90;;;;;;5005963;28;20107;-61
2022/05/23 03:49:55;;;;;;;13.27;6.15;;;12.90;99.90;;;;;;5009847;28;20481;-61
2022/05/23 03:52:20;;;;;;;13.02;5.82;;;12.80;99.90;;;;;;5007824;28;20040;-61
2022/05/23 03:54:49;;;;;;;10.18;4.93;;;12.90;99.90;;;;;;5010040;28;20053;-62
2022/05/23 03:57:15;;;;;;;11.45;4.68;;;12.90;99.90;;;;;;5005850;28;20025;-61
2022/05/23 03:59:41;;;;;;;10.57;4.88;;;12.90;99.90;;;;;;5001937;28;20544;-61
2022/05/23 04:02:07;;;;;;;11.50;3.90;;;12.90;99.90;;;;;;5009046;28;20038;-60
2022/05/23 04:04:32;;;;;;;10.10;4.45;;;12.80;99.90;;;;;;5008084;28;20030;-59
2022/05/23 04:07:04;;;;;;;10.32;4.25;;;12.90;99.90;;;;;;5008320;28;20037;-60
2022/05/23 04:09:31;;;;;;;10.95;4.30;;;12.90;99.90;;;;;;5008340;28;20030;-62
2022/05/23 04:11:58;;;;;;;15.82;6.40;;;12.90;99.90;;;;;;5009306;28;20045;-61
2022/05/23 04:14:25;;;;;;;10.05;4.78;;;12.90;99.90;;;;;;5008108;28;20056;-59
2022/05/23 04:16:52;;;;;;;7.82;4.80;;;12.90;99.90;;;;;;5008721;28;20041;-59
2022/05/23 04:19:18;;;;;;;7.38;4.03;;;12.80;99.90;;;;;;5007524;28;20037;-60
2022/05/23 04:21:46;;;;;;;8.75;5.00;;;12.80;99.90;;;;;;5009720;28;20038;-60
2022/05/23 04:24:13;;;;;;;12.15;5.18;;;12.80;99.90;;;;;;5009475;28;20048;-61
2022/05/23 04:26:39;;;;;;;10.27;5.35;;;12.80;99.90;;;;;;5006519;28;20038;-62
2022/05/23 04:29:06;;;;;;;15.52;6.82;;;12.80;99.90;;;;;;5006594;28;20029;-62
2022/05/23 04:31:33;;;;;;;15.30;7.20;;;12.70;99.90;;;;;;5006366;28;20136;-64
2022/05/23 04:36:43;;;;;;;14.88;6.18;;;12.70;99.90;;;;;;5006226;28;20161;-61
2022/05/23 04:39:09;;;;;;;12.23;5.90;;;12.70;99.90;;;;;;5008940;28;20117;-61
2022/05/23 04:41:35;;;;;;;11.90;5.60;;;12.70;99.90;;;;;;5007396;28;20946;-61
2022/05/23 04:44:02;;;;;;;10.23;4.40;;;12.80;99.90;;;;;;5007445;28;20426;-61
2022/05/23 04:46:28;;;;;;;9.50;5.18;;;12.80;99.90;;;;;;5011399;28;20474;-60
2022/05/23 04:51:39;;;;;;;13.90;5.03;;;12.80;99.90;;;;;;5006711;28;20038;-61
2022/05/23 04:54:06;;;;;;;13.82;6.25;;;12.80;99.90;;;;;;5012706;28;20112;-63
2022/05/23 04:56:32;;;;;;;9.40;4.70;;;12.80;99.90;;;;;;5010571;28;20557;-61
2022/05/23 04:58:58;;;;;;;9.30;5.80;;;12.70;99.90;;;;;;5010454;28;20025;-62
2022/05/23 05:01:25;;;;;;;15.27;6.13;;;12.70;99.90;;;;;;5007162;28;20030;-60
2022/05/23 05:03:53;;;;;;;14.40;6.35;;;12.60;99.90;;;;;;5012505;28;20036;-60
2022/05/23 05:06:22;;;;;;;12.85;5.55;;;12.70;99.90;;;;;;5006513;28;20041;-62
2022/05/23 05:08:48;;;;;;;6.18;4.13;;;12.70;99.90;;;;;;5013914;28;20034;-62
2022/05/23 05:11:14;;;;;;;10.40;4.80;;;12.60;99.90;;;;;;5018630;28;20044;-60
2022/05/23 05:13:40;;;;;;;13.32;5.93;;;12.60;99.90;;;;;;5013715;28;20025;-62
2022/05/23 05:16:07;;;;;;;14.95;5.10;;;12.70;99.90;;;;;;5015564;28;20388;-61
2022/05/23 05:18:34;;;;;;;16.98;6.68;;;12.70;99.90;;;;;;5015215;28;20366;-61
2022/05/23 05:21:08;;;;;;;11.95;5.45;;;12.70;99.90;;;;;;5014318;28;20026;-61
2022/05/23 05:23:35;;;;;;;11.85;7.07;;;12.70;99.90;;;;;;5017984;28;20080;-60
2022/05/23 05:26:02;;;;;;;12.55;6.15;;;12.70;99.90;;;;;;5012111;28;20073;-60
2022/05/23 05:28:28;;;;;;;13.90;6.32;;;12.70;99.90;;;;;;5011686;28;20034;-60
2022/05/23 05:31:02;;;;;;;16.35;7.82;;;12.80;99.90;;;;;;5011168;28;20046;-60
2022/05/23 05:33:33;;;;;;;20.25;8.70;;;12.90;99.90;;;;;;5008681;28;20018;-61
2022/05/23 05:36:09;;;;;;;19.13;8.73;;;12.90;99.90;;;;;;5012161;28;20037;-61
2022/05/23 05:38:49;;;;;;;19.02;9.52;;;12.90;99.90;;;;;;5010605;28;20624;-62
2022/05/23 05:41:20;;;;;;;15.32;7.88;;;13.00;99.90;;;;;;5011102;28;20045;-61
2022/05/23 05:44:07;;;;;;;16.33;7.20;;;13.00;99.90;;;;;;5010967;28;20037;-60
2022/05/23 05:46:41;;;;;;;14.02;7.68;;;13.00;99.90;;;;;;5012281;28;20160;-62
2022/05/23 05:49:13;;;;;;;16.65;6.15;;;13.00;99.90;;;;;;5018664;28;20029;-62
2022/05/23 05:51:43;;;;;;;12.65;6.00;;;13.00;99.90;;;;;;5010697;28;20056;-62
2022/05/23 05:54:12;;;;;;;12.60;5.97;;;13.00;99.90;;;;;;5017167;28;20037;-60
2022/05/23 05:56:39;;;;;;;12.68;5.50;;;12.90;99.90;;;;;;5015613;28;20053;-62
2022/05/23 05:59:06;;;;;;;12.85;5.57;;;12.90;99.90;;;;;;5011404;28;20132;-62
2022/05/23 06:01:31;;;;;;;13.93;8.48;;;12.90;99.90;;;;;;5008757;28;20382;-61
2022/05/23 06:03:57;;;;;;;15.20;6.38;;;13.00;99.90;;;;;;5011503;28;20030;-59
2022/05/23 06:11:51;;;;;;;11.15;4.47;;;13.10;99.90;;;;;;5007196;28;20100;-59
2022/05/23 06:14:17;;;;;;;10.07;4.65;;;13.00;99.90;;;;;;5009602;28;20038;-59
2022/05/23 06:16:43;;;;;;;12.65;4.55;;;13.00;99.90;;;;;;5019116;28;20053;-58
2022/05/23 06:19:08;;;;;;;14.65;5.55;;;13.00;99.90;;;;;;5011196;28;20559;-60
2022/05/23 06:21:34;;;;;;;10.98;4.20;;;13.00;99.90;;;;;;5011172;28;20038;-59
2022/05/23 06:24:00;;;;;;;9.30;3.80;;;12.90;99.90;;;;;;5013275;28;20026;-59
2022/05/23 06:26:27;;;;;;;13.30;4.45;;;12.90;99.90;;;;;;5008648;28;20387;-59
2022/05/23 06:28:53;;;;;;;13.48;4.80;;;12.90;99.90;;;;;;5010605;28;20018;-59
2022/05/23 06:31:19;;;;;;;16.92;3.92;;;13.00;99.90;;;;;;5014824;28;20065;-60
2022/05/23 06:33:45;;;;;;;11.70;4.97;;;13.00;99.90;;;;;;5014225;28;20437;-60
2022/05/23 06:36:12;;;;;;;8.02;4.10;;;13.00;99.90;;;;;;5010953;28;20057;-60
2022/05/23 06:38:40;;;;;;;13.75;5.80;;;13.00;99.90;;;;;;5008238;28;20033;-59
2022/05/23 06:41:07;;;;;;;11.25;4.45;;;13.00;99.90;;;;;;5014717;28;20026;-60
2022/05/23 06:43:34;;;;;;;13.07;4.90;;;13.00;99.90;;;;;;5007258;28;20033;-61
2022/05/23 06:46:02;;;;;;;9.52;3.85;;;13.00;99.90;;;;;;5009641;28;20034;-60
2022/05/23 06:48:28;;;;;;;8.20;5.03;;;13.00;99.90;;;;;;5010858;28;20034;-60
2022/05/23 06:50:54;;;;;;;11.52;4.82;;;13.10;99.90;;;;;;5011534;28;20040;-60
2022/05/23 06:53:21;;;;;;;11.68;4.88;;;13.10;99.90;;;;;;5009033;28;20389;-60
2022/05/23 06:55:48;;;;;;;15.35;4.82;;;13.10;99.90;;;;;;5003367;28;20486;-60
2022/05/23 06:58:14;;;;;;;9.93;4.82;;;13.20;99.90;;;;;;5010868;28;20030;-59
2022/05/23 07:00:41;;;;;;;13.48;4.75;;;13.20;99.90;;;;;;5008291;28;20492;-59
2022/05/23 07:03:07;;;;;;;10.65;4.47;;;13.20;99.90;;;;;;5015075;28;21024;-59
2022/05/23 07:13:48;;;;;;;12.18;4.82;;;13.20;99.90;;;;;;5009593;28;20053;-59
2022/05/23 07:16:17;;;;;;;12.68;5.13;;;13.40;99.90;;;;;;5013253;28;20030;-59
2022/05/23 07:18:43;;;;;;;10.55;4.65;;;13.40;99.90;;;;;;5011697;28;20117;-58
2022/05/23 07:21:09;;;;;;;9.80;4.53;;;13.40;99.90;;;;;;5012668;28;20030;-58
2022/05/23 07:23:35;;;;;;;10.52;4.18;;;13.40;99.90;;;;;;5010933;28;20025;-58
2022/05/23 07:26:02;;;;;;;8.60;4.18;;;13.40;99.90;;;;;;5003191;28;20568;-58
2022/05/23 07:28:28;;;;;;;14.85;4.80;;;13.40;99.90;;;;;;4996168;28;20042;-58
2022/05/23 07:30:54;;;;;;;15.50;7.30;;;13.50;99.90;;;;;;5003288;28;20045;-58
2022/05/23 07:33:20;;;;;;;13.23;5.15;;;13.50;99.90;;;;;;5004274;28;20030;-59
2022/05/23 07:35:46;;;;;;;11.07;4.30;;;13.60;99.90;;;;;;5007215;28;20478;-57
2022/05/23 07:38:12;;;;;;;11.23;4.50;;;13.60;99.90;;;;;;5008433;28;20176;-57
2022/05/23 07:40:38;;;;;;;11.18;4.97;;;13.70;99.90;;;;;;5004162;28;20125;-57
2022/05/23 07:43:04;;;;;;;8.90;4.50;;;13.70;99.90;;;;;;5000607;28;20524;-58
2022/05/23 07:45:30;;;;;;;6.70;3.78;;;13.80;99.90;;;;;;5007508;28;20505;-58
2022/05/23 07:47:55;;;;;;;12.10;4.65;;;13.90;99.90;;;;;;5004520;28;20115;-58
2022/05/23 07:50:21;;;;;;;8.77;4.35;;;13.90;99.90;;;;;;5005518;28;20030;-58
2022/05/23 08:01:00;;;;;;;12.02;4.93;;;14.20;99.90;;;;;;5010987;28;20048;-58
2022/05/23 08:03:26;;;;;;;6.72;4.15;;;14.20;99.90;;;;;;5007685;28;20101;-59
2022/05/23 08:05:52;;;;;;;5.38;3.72;;;14.30;99.90;;;;;;5009011;28;20548;-57
2022/05/23 08:08:18;;;;;;;12.10;4.82;;;14.20;99.90;;;;;;5004661;28;20124;-58
2022/05/23 08:10:43;;;;;;;9.63;4.35;;;14.30;99.90;;;;;;5006814;28;20025;-57
2022/05/23 08:13:09;;;;;;;8.75;4.53;;;14.40;99.90;;;;;;5006523;28;20090;-57
2022/05/23 08:15:37;;;;;;;9.30;4.28;;;14.40;99.90;;;;;;5004181;28;20026;-59
2022/05/23 08:18:05;;;;;;;9.57;4.28;;;14.60;99.90;;;;;;5007842;28;20025;-58
2022/05/23 08:20:31;;;;;;;6.15;3.65;;;14.60;99.90;;;;;;5004698;28;20808;-59
2022/05/23 08:22:59;;;;;;;6.72;3.10;;;14.70;99.90;;;;;;5007618;28;20018;-63
2022/05/23 08:25:25;;;;;;;5.55;3.85;;;14.70;99.90;;;;;;5006794;28;20116;-59
2022/05/23 08:27:53;;;;;;;9.02;4.32;;;14.80;99.90;;;;;;5001871;28;20038;-59
2022/05/23 08:30:19;;;;;;;8.70;3.85;;;14.80;99.90;;;;;;5003374;28;20232;-57
2022/05/23 08:32:46;;;;;;;7.80;4.80;;;14.80;99.90;;;;;;5008612;28;20030;-58
2022/05/23 08:35:12;;;;;;;8.55;4.18;;;14.80;99.90;;;;;;5008652;28;20030;-58
2022/05/23 08:37:38;;;;;;;7.13;4.05;;;14.90;99.90;;;;;;5006654;28;20108;-58
2022/05/23 08:40:06;;;;;;;8.02;4.28;;;15.00;99.90;;;;;;5005187;28;20018;-58
2022/05/23 08:42:40;;;;;;;10.27;3.78;;;15.00;99.90;;;;;;5005350;28;20038;-59
2022/05/23 08:45:23;;;;;;;7.28;3.80;;;15.00;99.90;;;;;;5007209;28;20030;-58
2022/05/23 08:48:06;;;;;;;10.35;3.72;;;15.10;99.90;;;;;;5011061;28;20124;-58
2022/05/23 08:50:55;;;;;;;7.30;3.53;;;15.10;99.90;;;;;;5013620;28;20033;-59
2022/05/23 08:53:27;;;;;;;5.30;3.70;;;15.00;99.90;;;;;;4999586;28;20026;-58
2022/05/23 08:55:56;;;;;;;;;;;15.10;99.90;;;;;;5008553;28;20030;-58
2022/05/23 08:58:38;;;;;;;8.63;3.55;;;15.10;99.90;;;;;;5003861;28;19964;-58
2022/05/23 09:01:15;;;;;;;7.83;3.83;;;15.10;99.90;;;;;;5010738;28;20029;-58
2022/05/23 09:03:50;;;;;;;8.55;4.28;;;15.10;99.90;;;;;;5000141;28;20026;-57
2022/05/23 09:06:23;;;;;;;11.18;4.00;;;15.10;99.90;;;;;;5001142;28;20061;-57
2022/05/23 09:08:52;;;;;;;9.05;3.78;;;15.00;99.90;;;;;;4999512;28;20042;-59
2022/05/23 09:11:39;;;;;;;6.53;4.20;;;15.00;99.90;;;;;;5001127;28;20032;-58
2022/05/23 09:14:07;;;;;;;8.25;4.30;;;15.10;99.90;;;;;;5002997;28;20084;-58
2022/05/23 09:16:43;;;;;;;10.52;4.03;;;15.20;99.90;;;;;;5001635;28;20512;-59
2022/05/23 09:19:23;;;;;;;12.77;5.05;;;15.40;99.90;;;;;;5009350;28;20041;-59
2022/05/23 09:24:58;;;;;;;8.43;3.92;;;15.50;99.90;;;;;;5013266;28;20057;-60
2022/05/23 09:27:30;;;;;;;14.88;4.50;;;15.50;99.90;;;;;;5000628;28;20042;-58
2022/05/23 09:29:58;;;;;;;10.32;4.82;;;15.50;99.90;;;;;;5009655;28;20109;-59
2022/05/23 09:32:32;;;;;;;10.13;3.85;;;15.60;99.90;;;;;;5006718;28;20052;-59
2022/05/23 09:35:16;;;;;;;9.95;4.75;;;15.70;99.90;;;;;;5010965;28;20026;-58
2022/05/23 09:37:46;;;;;;;9.43;4.18;;;15.70;99.90;;;;;;5008374;28;20053;-58
2022/05/23 09:40:29;;;;;;;9.40;3.67;;;15.60;99.90;;;;;;4999445;28;20111;-58
2022/05/23 09:49:12;;;;;;;13.27;4.78;;;15.50;99.90;;;;;;5003000;28;20112;-57
2022/05/23 09:51:59;;;;;;;10.90;4.30;;;15.40;99.90;;;;;;5008442;28;20033;-58
2022/05/23 09:54:38;;;;;;;14.38;5.00;;;15.30;99.90;;;;;;5005933;28;20033;-57
2022/05/23 09:57:17;;;;;;;8.13;3.97;;;15.30;99.90;;;;;;4996234;28;20022;-57
2022/05/23 09:59:44;;;;;;;9.05;4.43;;;15.30;99.90;;;;;;5000498;28;20022;-58
2022/05/23 10:02:15;;;;;;;7.32;4.45;;;15.40;99.90;;;;;;5004961;28;20565;-59
2022/05/23 10:04:44;;;;;;;;;;;15.40;99.90;;;;;;5010301;28;20018;-59
2022/05/23 10:07:28;;;;;;;16.00;5.93;;;15.50;99.90;;;;;;5007845;28;20419;-59
2022/05/23 10:10:00;;;;;;;14.98;5.63;;;15.60;99.90;;;;;;5004809;28;20507;-59
2022/05/23 10:12:26;;;;;;;8.65;4.30;;;15.70;99.90;;;;;;4991729;28;20096;-59
2022/05/23 10:15:10;;;;;;;12.63;4.25;;;15.70;99.90;;;;;;5005006;28;20056;-59
2022/05/23 10:17:38;;;;;;;11.30;4.82;;;15.70;99.90;;;;;;5005175;28;20490;-59
2022/05/23 10:20:23;;;;;;;13.00;4.90;;;15.70;99.90;;;;;;5004740;28;20026;-59
2022/05/23 10:23:01;;;;;;;15.65;4.25;;;15.70;99.90;;;;;;5005833;28;20044;-58
2022/05/23 10:25:59;;;;;;;7.75;3.50;;;15.70;99.90;;;;;;5007987;28;20026;-58
2022/05/23 10:28:39;;;;;;;12.73;4.53;;;15.70;99.90;;;;;;5011015;28;20076;-59
2022/05/23 10:31:19;;;;;;;16.42;4.90;;;15.70;99.90;;;;;;5003677;28;20052;-58
2022/05/23 10:33:52;;;;;;;19.33;8.63;;;15.80;99.90;;;;;;5008332;28;20023;-60
2022/05/23 10:36:21;;;;;;;13.63;4.75;;;16.00;99.90;;;;;;5004298;28;20033;-59
2022/05/23 10:44:54;;;;;;;15.63;4.82;;;15.90;99.90;;;;;;5003139;28;20556;-59
2022/05/23 10:47:56;;;;;;;13.52;4.47;;;15.90;99.90;;;;;;4998665;28;20038;-59
2022/05/23 10:50:43;;;;;;;6.43;3.75;;;15.90;99.90;;;;;;4998671;28;20033;-58
2022/05/23 10:53:15;;;;;;;13.30;4.72;;;15.80;99.90;;;;;;5005876;28;20474;-58
2022/05/23 10:55:54;;;;;;;9.45;3.97;;;15.90;99.90;;;;;;5001273;28;20577;-58
2022/05/23 10:58:42;;;;;;;11.15;4.13;;;15.90;99.90;;;;;;4998146;28;20029;-58
2022/05/23 11:01:47;;;;;;;10.63;4.57;;;15.90;99.90;;;;;;5008225;28;20117;-58
2022/05/23 11:04:49;;;;;;;5.78;3.22;;;16.10;99.90;;;;;;5008811;28;20048;-58
2022/05/23 11:07:34;;;;;;;10.35;4.25;;;16.20;99.90;;;;;;5002775;28;20034;-58
2022/05/23 11:10:15;;;;;;;15.85;4.95;;;16.30;99.90;;;;;;5002701;28;20076;-59
2022/05/23 11:13:01;;;;;;;9.13;4.53;;;16.20;99.90;;;;;;4994622;28;20121;-59
2022/05/23 11:15:39;;;;;;;8.73;3.97;;;16.30;99.90;;;;;;4999241;28;20026;-61
2022/05/23 11:18:45;;;;;;;6.68;3.35;;;16.50;99.90;;;;;;5001770;28;20030;-60
2022/05/23 11:21:20;;;;;;;8.98;3.70;;;16.70;99.90;;;;;;5008771;28;20030;-59
2022/05/23 11:23:52;;;;;;;9.70;3.65;;;16.80;99.90;;;;;;5010614;28;20077;-59
2022/05/23 11:26:20;;;;;;;8.15;3.50;;;16.90;99.90;;;;;;5004605;28;20038;-59
2022/05/23 11:35:10;;;;;;;14.52;4.30;;;16.40;99.90;;;;;;4988885;28;20062;-58
2022/05/23 11:37:45;;;;;;;10.25;3.47;;;16.30;99.90;;;;;;5004244;28;20044;-59
2022/05/23 11:40:37;;;;;;;9.15;3.58;;;16.30;99.90;;;;;;4997981;28;20042;-59
2022/05/23 11:43:05;;;;;;;6.38;3.90;;;16.20;99.90;;;;;;4991836;28;20022;-59
2022/05/23 11:45:59;;;;;;;9.23;5.13;;;16.10;99.80;;;;;;5001922;28;20061;-58
2022/05/23 11:48:34;;;;;;;6.53;4.13;;;16.20;99.90;;;;;;5004885;28;20033;-58
2022/05/23 11:51:22;;;;;;;8.43;4.80;;;16.30;99.90;;;;;;5005382;28;20033;-59
2022/05/23 11:53:57;;;;;;;8.88;4.90;;;16.50;99.90;;;;;;4999627;28;20116;-58
2022/05/23 11:56:36;;;;;;;9.68;5.30;;;16.60;99.90;;;;;;5001310;28;20850;-59
2022/05/23 11:59:04;;;;;;;10.50;5.32;;;16.70;99.90;;;;;;5004129;28;20026;-59
2022/05/23 12:01:30;;;;;;;8.68;3.95;;;16.70;99.90;;;;;;5000847;28;20025;-59
2022/05/23 12:03:57;;;;;;;8.63;4.50;;;16.50;99.00;;;;;;5001011;28;20041;-58
2022/05/23 12:06:29;;;;;;;11.05;4.13;;;16.30;98.90;;;;;;5001923;28;20038;-59
2022/05/23 12:08:58;;;;;;;5.65;3.65;;;16.20;99.90;;;;;;5003546;28;20030;-58
2022/05/23 12:11:30;;;;;;;10.60;3.88;;;16.10;99.70;;;;;;5006131;28;20041;-58
2022/05/23 12:14:12;;;;;;;6.35;3.33;;;16.10;99.90;;;;;;5003551;28;20052;-58
2022/05/23 12:17:05;;;;;;;7.22;3.65;;;16.00;99.30;;;;;;5004351;28;20041;-59
2022/05/23 12:19:40;;;;;;;10.20;3.65;;;15.90;99.40;;;;;;5002210;28;20449;-59
2022/05/23 12:22:14;;;;;;;4.63;3.20;;;15.70;99.20;;;;;;5004597;28;20118;-59
2022/05/23 12:25:08;;;;;;;7.07;3.47;;;15.60;99.90;;;;;;4999481;28;20063;-59
2022/05/23 12:27:44;;;;;;;6.07;2.88;;;15.60;99.90;;;;;;5001663;28;20452;-57
2022/05/23 12:30:22;;;;;;;4.80;3.17;;;15.70;99.60;;;;;;5006670;28;20053;-58
2022/05/23 12:33:05;;;;;;;11.70;4.45;;;15.80;99.30;;;;;;4999165;28;20229;-58
2022/05/23 12:35:53;;;;;;;6.65;3.42;;;15.80;99.90;;;;;;5003707;28;20029;-58
2022/05/23 12:38:31;;;;;;;7.78;3.20;;;15.80;99.90;;;;;;4987942;28;20044;-58
2022/05/23 12:41:17;;;;;;;5.72;3.08;;;15.90;99.90;;;;;;5003112;28;20014;-59
2022/05/23 12:43:49;;;;;;;7.60;3.15;;;15.80;99.90;;;;;;5002587;28;20029;-58
2022/05/23 12:46:17;;;;;;;8.43;3.30;;;16.00;99.70;;;;;;5000814;28;20032;-57
2022/05/23 12:48:46;;;;;;;7.85;2.80;;;15.90;99.10;;;;;;5001840;28;20567;-58
2022/05/23 12:54:58;;;;;;;6.82;2.72;;;15.90;99.60;;;;;;5009590;28;20024;-59
2022/05/23 12:57:31;;;;;;;4.32;2.70;;;16.00;98.60;;;;;;4998776;28;20030;-58
2022/05/23 13:00:03;;;;;;;6.10;1.88;;;16.00;98.50;;;;;;4997687;28;20034;-59
2022/05/23 13:02:47;;;;;;;6.22;2.30;;;16.00;97.90;;;;;;4999112;28;20030;-59
2022/05/23 13:05:35;;;;;;;9.07;3.47;;;15.90;98.10;;;;;;4997934;28;20417;-58
2022/05/23 13:08:22;;;;;;;6.43;2.90;;;15.80;98.30;;;;;;5004971;28;20092;-58
2022/05/23 13:11:03;;;;;;;8.15;2.28;;;15.80;99.00;;;;;;5006547;28;20026;-58
2022/05/23 13:13:34;;;;;;;7.88;2.90;;;15.70;98.20;;;;;;5003299;28;20095;-58
2022/05/23 13:16:16;;;;;;;6.88;2.13;;;15.50;98.00;;;;;;5004461;28;20117;-58
2022/05/23 13:24:48;;;;;;;4.95;2.80;;;15.30;99.70;;;;;;5009218;28;20031;-58
2022/05/23 13:27:04;;;;;;;8.75;3.00;;;15.30;99.10;;;;;;5005271;28;20031;-57
2022/05/23 13:29:32;;;;;;;8.40;2.58;;;15.20;99.30;;;;;;5004658;28;20057;-59
2022/05/23 13:32:11;;;;;;;7.53;3.15;;;15.20;99.90;;;;;;5003740;28;20046;-58
2022/05/23 13:34:40;;;;;;;9.27;3.40;;;15.10;99.90;;;;;;5002382;28;20045;-59
2022/05/23 13:37:07;;;;;;;6.57;3.28;;;15.20;99.90;;;;;;5010873;28;20116;-57
2022/05/23 13:39:46;;;;;;;5.35;2.20;;;15.10;99.90;;;;;;5003356;28;20022;-58
2022/05/23 13:42:24;;;;;;;6.85;2.63;;;15.10;99.70;;;;;;5006740;28;20718;-58
2022/05/23 13:44:50;;;;;;;7.43;3.30;;;14.90;99.50;;;;;;4999105;28;20497;-58
2022/05/23 13:47:27;;;;;;;8.98;3.50;;;15.30;99.90;;;;;;5008787;28;20037;-58
2022/05/23 13:49:58;;;;;;;9.85;3.50;;;15.60;99.90;;;;;;5005636;28;20033;-58
2022/05/23 13:52:31;;;;;;;12.32;4.18;;;15.80;99.90;;;;;;5004055;28;20100;-58
2022/05/23 13:55:09;;;;;;;8.60;2.83;;;16.10;99.90;;;;;;5009905;28;20103;-57
2022/05/23 13:57:47;;;;;;;7.82;3.45;;;16.20;99.90;;;;;;5001884;28;20478;-58
2022/05/23 14:00:22;;;;;;;5.85;2.50;;;16.30;99.50;;;;;;5000086;28;20094;-58
2022/05/23 14:02:56;;;;;;;6.85;3.20;;;16.40;98.40;;;;;;5007802;28;20512;-58
2022/05/23 14:05:25;;;;;;;9.77;2.42;;;16.60;99.20;;;;;;5002179;28;20576;-58
2022/05/23 14:07:53;;;;;;;6.97;2.35;;;16.70;97.40;;;;;;5008065;28;20053;-60
2022/05/23 14:10:22;;;;;;;6.57;2.38;;;16.90;96.90;;;;;;5002134;28;20056;-58
2022/05/23 14:12:49;;;;;;;6.63;2.30;;;17.10;96.60;;;;;;5003960;28;20053;-58
2022/05/23 14:15:24;;;;;;;8.55;2.88;;;17.00;95.70;;;;;;5004114;28;20030;-58